createdAt,value
2023-04-07T00:02:45.573Z,3.00
2023-04-07T00:05:48.199Z,3.00
2023-04-07T00:08:50.142Z,3.00
2023-04-07T00:11:52.510Z,2.90
2023-04-07T00:14:54.552Z,2.90
2023-04-07T00:17:56.555Z,2.80
2023-04-07T00:20:58.364Z,2.80
2023-04-07T00:24:00.187Z,2.80
2023-04-07T00:27:02.570Z,2.70
2023-04-07T00:30:06.045Z,2.60
2023-04-07T00:33:09.722Z,2.60
2023-04-07T00:36:11.792Z,2.60
2023-04-07T00:39:13.635Z,2.60
2023-04-07T00:42:15.502Z,2.50
2023-04-07T00:45:17.314Z,2.50
2023-04-07T00:48:19.183Z,2.40
2023-04-07T00:51:22.687Z,2.40
2023-04-07T00:54:25.120Z,2.30
2023-04-07T00:57:27.480Z,2.20
2023-04-07T01:00:31.773Z,2.20
2023-04-07T01:03:57.799Z,2.10
2023-04-07T01:07:06.779Z,2.10
2023-04-07T01:10:12.732Z,2.00
2023-04-07T01:13:28.581Z,1.90
2023-04-07T01:16:43.043Z,1.90
2023-04-07T01:19:51.653Z,1.90
2023-04-07T01:22:56.075Z,1.90
2023-04-07T01:26:18.973Z,1.80
2023-04-07T01:29:53.857Z,2.00
2023-04-07T01:32:58.217Z,1.80
2023-04-07T01:36:04.966Z,1.80
2023-04-07T01:39:08.517Z,1.70
2023-04-07T01:42:11.762Z,1.70
2023-04-07T01:45:16.198Z,1.70
2023-04-07T01:48:18.397Z,1.60
2023-04-07T01:51:22.237Z,1.60
2023-04-07T01:54:24.703Z,1.60
2023-04-07T01:57:26.726Z,1.50
2023-04-07T02:00:28.636Z,1.50
2023-04-07T02:03:44.647Z,1.50
2023-04-07T02:06:52.754Z,1.40
2023-04-07T02:09:59.197Z,1.40
2023-04-07T02:13:04.083Z,1.40
2023-04-07T02:16:07.385Z,1.40
2023-04-07T02:19:09.894Z,1.40
2023-04-07T02:22:12.341Z,1.40
2023-04-07T02:25:31.686Z,1.30
2023-04-07T02:28:33.534Z,1.30
2023-04-07T02:31:35.755Z,1.20
2023-04-07T02:34:37.647Z,1.20
2023-04-07T02:37:39.838Z,1.20
2023-04-07T02:40:41.802Z,1.10
2023-04-07T02:43:43.625Z,1.10
2023-04-07T02:46:45.496Z,1.10
2023-04-07T02:49:47.315Z,1.10
2023-04-07T02:52:50.201Z,1.10
2023-04-07T02:55:51.993Z,1.10
2023-04-07T02:58:53.978Z,1.00
2023-04-07T03:01:56.016Z,1.00
2023-04-07T03:04:58.386Z,1.00
2023-04-07T03:08:00.508Z,1.00
2023-04-07T03:11:02.363Z,0.90
2023-04-07T03:14:04.380Z,0.90
2023-04-07T03:17:06.311Z,0.90
2023-04-07T03:20:08.841Z,1.00
2023-04-07T03:23:10.982Z,0.80
2023-04-07T03:26:12.956Z,0.80
2023-04-07T03:29:14.920Z,0.80
2023-04-07T03:32:16.941Z,0.80
2023-04-07T03:35:18.749Z,0.70
2023-04-07T03:38:21.567Z,0.70
2023-04-07T03:41:23.672Z,0.70
2023-04-07T03:44:25.649Z,0.60
2023-04-07T03:47:27.659Z,0.70
2023-04-07T03:50:29.971Z,0.60
2023-04-07T03:53:32.333Z,0.60
2023-04-07T03:56:36.234Z,0.60
2023-04-07T03:59:38.383Z,0.50
2023-04-07T04:02:40.579Z,0.50
2023-04-07T04:05:42.958Z,0.40
2023-04-07T04:08:47.930Z,0.50
2023-04-07T04:11:49.974Z,0.40
2023-04-07T04:14:51.801Z,0.40
2023-04-07T04:17:53.620Z,0.40
2023-04-07T04:20:55.487Z,0.30
2023-04-07T04:23:57.761Z,0.30
2023-04-07T04:26:59.651Z,0.30
2023-04-07T04:30:01.765Z,0.20
2023-04-07T04:33:03.854Z,0.20
2023-04-07T04:36:06.210Z,0.20
2023-04-07T04:39:07.978Z,0.10
2023-04-07T04:42:09.958Z,0.10
2023-04-07T04:45:11.907Z,0.10
2023-04-07T04:48:13.872Z,0.00
2023-04-07T04:51:15.704Z,0.00
2023-04-07T04:54:17.794Z,0.00
2023-04-07T04:57:21.253Z,0.00
2023-04-07T05:00:23.216Z,0.00
2023-04-07T05:03:26.936Z,0.00
2023-04-07T05:06:29.266Z,0.00
2023-04-07T05:09:31.692Z,-0.10
2023-04-07T05:12:33.699Z,-0.10
2023-04-07T05:15:35.748Z,-0.10
2023-04-07T05:18:37.663Z,-0.10
2023-04-07T05:21:39.486Z,-0.10
2023-04-07T05:24:41.657Z,0.00
2023-04-07T05:27:43.603Z,0.00
2023-04-07T05:30:45.668Z,0.00
2023-04-07T05:33:49.255Z,0.00
2023-04-07T05:36:52.307Z,0.10
2023-04-07T05:39:54.408Z,0.10
2023-04-07T05:42:56.556Z,0.10
2023-04-07T05:45:58.424Z,0.20
2023-04-07T05:49:07.124Z,0.20
2023-04-07T05:52:20.854Z,0.10
2023-04-07T05:55:22.888Z,0.30
2023-04-07T05:58:24.721Z,0.40
2023-04-07T06:01:27.969Z,0.40
2023-04-07T06:04:30.553Z,0.50
2023-04-07T06:07:32.507Z,0.70
2023-04-07T06:10:34.292Z,0.80
2023-04-07T06:13:36.306Z,0.90
2023-04-07T06:16:38.198Z,1.10
2023-04-07T06:19:40.229Z,1.30
2023-04-07T06:22:42.341Z,1.50
2023-04-07T06:25:45.088Z,1.70
2023-04-07T06:28:46.950Z,1.80
2023-04-07T06:31:48.805Z,1.90
2023-04-07T06:34:50.761Z,2.10
2023-04-07T06:37:52.813Z,2.30
2023-04-07T06:40:55.156Z,2.50
2023-04-07T06:43:57.345Z,2.70
2023-04-07T06:46:59.382Z,2.80
2023-04-07T06:50:01.298Z,2.90
2023-04-07T06:53:03.445Z,3.00
2023-04-07T06:56:12.270Z,3.00
2023-04-07T06:59:14.125Z,3.10
2023-04-07T07:02:16.119Z,3.10
2023-04-07T07:05:18.731Z,3.10
2023-04-07T07:08:20.883Z,3.20
2023-04-07T07:11:22.765Z,3.30
2023-04-07T07:14:24.591Z,3.40
2023-04-07T07:17:26.550Z,3.40
2023-04-07T07:20:28.476Z,3.50
2023-04-07T07:23:30.492Z,3.60
2023-04-07T07:26:32.398Z,3.60
2023-04-07T07:29:34.252Z,3.70
2023-04-07T07:32:36.602Z,3.80
2023-04-07T07:35:38.954Z,3.90
2023-04-07T07:38:41.299Z,4.00
2023-04-07T07:41:43.413Z,4.10
2023-04-07T07:44:47.272Z,4.20
2023-04-07T07:47:49.530Z,4.40
2023-04-07T07:50:53.108Z,4.50
2023-04-07T07:53:55.342Z,4.60
2023-04-07T07:56:57.457Z,4.70
2023-04-07T07:59:59.334Z,4.90
2023-04-07T08:03:01.507Z,5.00
2023-04-07T08:06:03.447Z,5.20
2023-04-07T08:09:06.370Z,5.40
2023-04-07T08:12:08.163Z,5.60
2023-04-07T08:15:10.441Z,5.90
2023-04-07T08:18:12.258Z,6.40
2023-04-07T08:21:14.413Z,6.80
2023-04-07T08:24:16.576Z,7.40
2023-04-07T08:27:18.589Z,7.90
2023-04-07T08:30:22.737Z,8.50
2023-04-07T08:33:25.724Z,9.10
2023-04-07T08:36:28.148Z,9.70
2023-04-07T08:39:30.034Z,10.10
2023-04-07T08:42:34.940Z,10.60
2023-04-07T08:45:42.332Z,11.00
2023-04-07T08:48:45.100Z,11.40
2023-04-07T08:51:48.766Z,11.70
2023-04-07T08:54:51.127Z,12.10
2023-04-07T08:57:54.388Z,12.30
2023-04-07T09:00:56.594Z,12.40
2023-04-07T09:03:59.234Z,12.60
2023-04-07T09:07:02.232Z,12.80
2023-04-07T09:10:05.068Z,13.00
2023-04-07T09:13:07.151Z,13.20
2023-04-07T09:16:09.323Z,13.30
2023-04-07T09:19:11.324Z,13.50
2023-04-07T09:22:14.432Z,13.60
2023-04-07T09:25:18.418Z,13.70
2023-04-07T09:28:20.227Z,13.80
2023-04-07T09:31:26.173Z,13.80
2023-04-07T09:34:31.181Z,13.90
2023-04-07T09:37:33.118Z,13.80
2023-04-07T09:40:36.675Z,13.90
2023-04-07T09:43:41.468Z,13.90
2023-04-07T09:46:52.899Z,13.90
2023-04-07T09:49:56.479Z,14.00
2023-04-07T09:52:58.481Z,13.90
2023-04-07T09:56:00.520Z,14.00
2023-04-07T09:59:03.100Z,14.00
2023-04-07T10:02:05.779Z,14.00
2023-04-07T10:05:08.583Z,14.00
2023-04-07T10:08:10.743Z,14.10
2023-04-07T10:11:12.647Z,14.20
2023-04-07T10:14:16.408Z,14.30
2023-04-07T10:17:20.616Z,14.20
2023-04-07T10:20:23.883Z,14.40
2023-04-07T10:23:43.865Z,14.30
2023-04-07T10:26:50.501Z,14.30
2023-04-07T10:29:53.574Z,14.30
2023-04-07T10:32:56.508Z,14.30
2023-04-07T10:36:06.627Z,14.30
2023-04-07T10:39:08.742Z,14.30
2023-04-07T10:42:41.719Z,14.30
2023-04-07T10:45:51.348Z,14.30
2023-04-07T10:49:14.052Z,14.30
2023-04-07T10:52:24.093Z,14.40
2023-04-07T10:55:31.974Z,14.40
2023-04-07T10:58:34.061Z,14.40
2023-04-07T11:01:36.775Z,14.50
2023-04-07T11:04:43.670Z,14.50
2023-04-07T11:07:55.327Z,14.50
2023-04-07T11:10:57.244Z,14.50
2023-04-07T11:13:59.099Z,14.50
2023-04-07T11:17:04.109Z,14.40
2023-04-07T11:20:06.694Z,14.40
2023-04-07T11:23:08.976Z,14.40
2023-04-07T11:26:12.337Z,14.40
2023-04-07T11:29:14.188Z,14.30
2023-04-07T11:32:16.923Z,14.20
2023-04-07T11:35:19.080Z,14.20
2023-04-07T11:38:21.749Z,14.20
2023-04-07T11:41:25.028Z,14.30
2023-04-07T11:44:26.811Z,14.30
2023-04-07T11:47:39.308Z,14.30
2023-04-07T11:50:42.728Z,14.30
2023-04-07T11:53:45.309Z,14.40
2023-04-07T11:56:47.997Z,14.40
2023-04-07T11:59:49.869Z,14.40
2023-04-07T12:02:52.658Z,14.50
2023-04-07T12:05:54.758Z,14.50
2023-04-07T12:08:56.795Z,14.50
2023-04-07T12:11:59.570Z,14.50
2023-04-07T12:15:01.896Z,14.50
2023-04-07T12:18:04.805Z,14.40
2023-04-07T12:21:06.669Z,14.40
2023-04-07T12:24:08.496Z,14.30
2023-04-07T12:27:10.454Z,14.30
2023-04-07T12:30:13.493Z,14.30
2023-04-07T12:33:15.782Z,14.30
2023-04-07T12:36:17.619Z,14.30
2023-04-07T12:39:19.677Z,14.40
2023-04-07T12:42:21.643Z,14.40
2023-04-07T12:45:23.567Z,14.50
2023-04-07T12:48:27.553Z,14.50
2023-04-07T12:51:29.564Z,14.60
2023-04-07T12:54:31.374Z,14.60
2023-04-07T12:57:33.882Z,14.60
2023-04-07T13:00:36.036Z,14.60
2023-04-07T13:03:38.766Z,14.70
2023-04-07T13:06:41.120Z,14.70
2023-04-07T13:09:46.129Z,14.80
2023-04-07T13:12:48.278Z,14.80
2023-04-07T13:15:50.401Z,14.80
2023-04-07T13:18:52.785Z,14.80
2023-04-07T13:21:54.918Z,14.70
2023-04-07T13:25:00.218Z,14.70
2023-04-07T13:28:02.730Z,14.60
2023-04-07T13:31:04.982Z,14.60
2023-04-07T13:34:06.830Z,14.60
2023-04-07T13:37:09.125Z,14.50
2023-04-07T13:40:12.720Z,14.50
2023-04-07T13:43:15.046Z,14.50
2023-04-07T13:46:28.008Z,14.50
2023-04-07T13:49:30.938Z,14.60
2023-04-07T13:52:35.480Z,14.60
2023-04-07T13:55:37.823Z,14.70
2023-04-07T13:58:39.548Z,14.80
2023-04-07T14:01:41.785Z,14.80
2023-04-07T14:04:43.944Z,14.90
2023-04-07T14:07:45.723Z,15.10
2023-04-07T14:10:47.576Z,15.20
2023-04-07T14:13:50.441Z,15.30
2023-04-07T14:16:52.701Z,15.40
2023-04-07T14:19:54.511Z,15.40
2023-04-07T14:22:56.360Z,15.60
2023-04-07T14:25:59.116Z,15.70
2023-04-07T14:29:00.984Z,15.70
2023-04-07T14:32:02.838Z,15.80
2023-04-07T14:35:05.033Z,15.90
2023-04-07T14:38:06.809Z,16.10
2023-04-07T14:41:10.418Z,16.10
2023-04-07T14:44:12.562Z,16.30
2023-04-07T14:47:14.412Z,16.40
2023-04-07T14:50:17.063Z,16.40
2023-04-07T14:53:18.922Z,16.60
2023-04-07T14:56:21.686Z,16.60
2023-04-07T14:59:24.081Z,16.70
2023-04-07T15:02:29.377Z,16.80
2023-04-07T15:05:31.630Z,16.80
2023-04-07T15:08:34.093Z,16.80
2023-04-07T15:11:36.136Z,16.80
2023-04-07T15:14:38.313Z,16.80
2023-04-07T15:17:43.906Z,16.80
2023-04-07T15:20:46.898Z,16.80
2023-04-07T15:23:48.943Z,16.80
2023-04-07T15:26:50.917Z,16.70
2023-04-07T15:29:53.057Z,16.60
2023-04-07T15:33:04.906Z,16.50
2023-04-07T15:36:09.123Z,16.50
2023-04-07T15:39:11.346Z,16.40
2023-04-07T15:42:13.470Z,16.30
2023-04-07T15:45:15.497Z,16.30
2023-04-07T15:48:17.994Z,16.30
2023-04-07T15:51:20.561Z,16.20
2023-04-07T15:54:22.383Z,16.20
2023-04-07T15:57:24.233Z,16.10
2023-04-07T16:00:27.498Z,16.10
2023-04-07T16:03:29.520Z,16.10
2023-04-07T16:06:31.832Z,16.10
2023-04-07T16:09:34.684Z,15.90
2023-04-07T16:12:37.895Z,15.90
2023-04-07T16:15:41.130Z,15.70
2023-04-07T16:18:43.626Z,15.60
2023-04-07T16:21:45.731Z,15.50
2023-04-07T16:24:47.632Z,15.40
2023-04-07T16:27:52.324Z,15.40
2023-04-07T16:30:54.367Z,15.30
2023-04-07T16:33:56.311Z,15.20
2023-04-07T16:36:58.209Z,15.20
2023-04-07T16:40:00.166Z,15.10
2023-04-07T16:43:02.180Z,15.00
2023-04-07T16:46:05.956Z,14.90
2023-04-07T16:49:07.800Z,14.90
2023-04-07T16:52:10.258Z,14.80
2023-04-07T16:55:12.502Z,14.70
2023-04-07T16:58:19.012Z,14.60
2023-04-07T17:01:21.410Z,14.50
2023-04-07T17:04:23.541Z,14.40
2023-04-07T17:07:25.426Z,14.40
2023-04-07T17:10:29.465Z,14.20
2023-04-07T17:13:31.771Z,14.10
2023-04-07T17:16:33.818Z,14.00
2023-04-07T17:19:36.083Z,13.90
2023-04-07T17:22:37.981Z,13.80
2023-04-07T17:25:40.280Z,13.70
2023-04-07T17:28:42.134Z,13.60
2023-04-07T17:31:44.279Z,13.50
2023-04-07T17:34:46.325Z,13.40
2023-04-07T17:37:48.607Z,13.40
2023-04-07T17:40:57.453Z,13.30
2023-04-07T17:43:59.297Z,13.30
2023-04-07T17:47:02.976Z,13.20
2023-04-07T17:50:05.233Z,13.10
2023-04-07T17:53:07.775Z,13.10
2023-04-07T17:56:09.758Z,13.00
2023-04-07T17:59:11.597Z,12.90
2023-04-07T18:02:13.510Z,12.90
2023-04-07T18:05:15.439Z,12.70
2023-04-07T18:08:17.333Z,12.70
2023-04-07T18:11:19.243Z,12.60
2023-04-07T18:14:21.055Z,12.50
2023-04-07T18:17:22.903Z,12.40
2023-04-07T18:20:24.822Z,12.30
2023-04-07T18:23:26.791Z,12.20
2023-04-07T18:26:28.936Z,12.10
2023-04-07T18:29:31.166Z,12.00
2023-04-07T18:32:33.126Z,11.90
2023-04-07T18:35:35.099Z,11.90
2023-04-07T18:38:38.304Z,11.80
2023-04-07T18:41:45.518Z,11.80
2023-04-07T18:44:47.551Z,11.80
2023-04-07T18:47:49.672Z,11.70
2023-04-07T18:50:53.015Z,11.70
2023-04-07T18:53:55.083Z,11.60
2023-04-07T18:56:58.049Z,11.60
2023-04-07T18:59:59.915Z,11.50
2023-04-07T19:03:01.963Z,11.50
2023-04-07T19:06:04.704Z,11.50
2023-04-07T19:09:06.651Z,11.40
2023-04-07T19:12:09.861Z,11.30
2023-04-07T19:15:11.961Z,11.20
2023-04-07T19:18:14.229Z,11.10
2023-04-07T19:21:16.581Z,11.00
2023-04-07T19:24:18.520Z,11.00
2023-04-07T19:27:20.386Z,10.80
2023-04-07T19:30:22.314Z,10.70
2023-04-07T19:33:24.167Z,10.60
2023-04-07T19:36:26.473Z,10.60
2023-04-07T19:39:28.372Z,10.50
2023-04-07T19:42:30.335Z,10.40
2023-04-07T19:45:32.304Z,10.40
2023-04-07T19:48:34.159Z,10.30
2023-04-07T19:51:36.098Z,10.20
2023-04-07T19:54:37.900Z,10.20
2023-04-07T19:57:43.194Z,10.10
2023-04-07T20:00:48.610Z,10.00
2023-04-07T20:03:51.108Z,9.90
2023-04-07T20:06:53.093Z,9.80
2023-04-07T20:09:55.154Z,9.80
2023-04-07T20:12:57.095Z,9.70
2023-04-07T20:15:59.374Z,9.70
2023-04-07T20:19:01.275Z,9.60
2023-04-07T20:22:04.596Z,9.50
2023-04-07T20:25:07.344Z,9.50
2023-04-07T20:28:09.208Z,9.40
2023-04-07T20:31:11.198Z,9.40
2023-04-07T20:34:13.062Z,9.30
2023-04-07T20:37:14.852Z,9.30
2023-04-07T20:40:17.095Z,9.20
2023-04-07T20:43:22.095Z,9.20
2023-04-07T20:46:24.146Z,9.10
2023-04-07T20:49:26.028Z,9.10
2023-04-07T20:52:28.166Z,9.00
2023-04-07T20:55:30.028Z,9.00
2023-04-07T20:58:32.005Z,8.90
2023-04-07T21:01:33.915Z,8.80
2023-04-07T21:04:36.888Z,8.80
2023-04-07T21:07:38.730Z,8.70
2023-04-07T21:10:40.775Z,8.60
2023-04-07T21:13:42.991Z,8.60
2023-04-07T21:16:44.829Z,8.50
2023-04-07T21:19:46.762Z,8.40
2023-04-07T21:22:48.610Z,8.40
2023-04-07T21:25:50.417Z,8.30
2023-04-07T21:28:52.744Z,8.20
2023-04-07T21:31:55.398Z,8.10
2023-04-07T21:34:57.290Z,8.10
2023-04-07T21:37:59.183Z,8.00
2023-04-07T21:41:01.226Z,7.90
2023-04-07T21:44:03.039Z,7.90
2023-04-07T21:47:04.919Z,7.70
2023-04-07T21:50:07.292Z,7.70
2023-04-07T21:53:10.426Z,7.60
2023-04-07T21:56:13.300Z,7.50
2023-04-07T21:59:18.722Z,7.50
2023-04-07T22:02:20.598Z,7.40
2023-04-07T22:05:22.542Z,7.40
2023-04-07T22:08:24.360Z,7.40
2023-04-07T22:11:27.676Z,7.40
2023-04-07T22:14:32.969Z,7.40
2023-04-07T22:17:35.689Z,7.40
2023-04-07T22:20:37.696Z,7.50
2023-04-07T22:23:39.562Z,7.50
2023-04-07T22:26:41.616Z,7.50
2023-04-07T22:29:43.560Z,7.50
2023-04-07T22:32:45.533Z,7.50
2023-04-07T22:35:48.075Z,7.50
2023-04-07T22:38:50.316Z,7.50
2023-04-07T22:41:52.482Z,7.50
2023-04-07T22:44:54.418Z,7.50
2023-04-07T22:47:56.374Z,7.50
2023-04-07T22:50:58.312Z,7.50
2023-04-07T22:54:00.477Z,7.60
2023-04-07T22:57:02.462Z,7.50
2023-04-07T23:00:05.210Z,7.50
2023-04-07T23:03:07.847Z,7.50
2023-04-07T23:06:09.813Z,7.50
2023-04-07T23:09:11.766Z,7.50
2023-04-07T23:12:13.598Z,7.50
2023-04-07T23:15:16.168Z,7.50
2023-04-07T23:18:18.099Z,7.50
2023-04-07T23:21:20.149Z,7.50
2023-04-07T23:24:21.948Z,7.50
2023-04-07T23:27:23.912Z,7.50
2023-04-07T23:30:26.349Z,7.40
2023-04-07T23:33:29.181Z,7.40
2023-04-07T23:36:31.642Z,7.40
2023-04-07T23:39:34.428Z,7.40
2023-04-07T23:42:36.906Z,7.40
2023-04-07T23:45:38.854Z,7.30
2023-04-07T23:48:41.724Z,7.30
2023-04-07T23:51:43.811Z,7.30
2023-04-07T23:54:45.764Z,7.30
2023-04-07T23:57:47.567Z,7.40
